createdAt,value
2023-02-09T00:01:24.520Z,8.52
2023-02-09T00:03:53.438Z,8.77
2023-02-09T00:06:24.221Z,8.90
2023-02-09T00:08:53.479Z,8.07
2023-02-09T00:11:43.686Z,8.10
2023-02-09T00:14:10.791Z,9.02
2023-02-09T00:16:38.743Z,8.63
2023-02-09T00:19:06.891Z,8.38
2023-02-09T00:21:35.024Z,8.60
2023-02-09T00:24:04.373Z,8.27
2023-02-09T00:26:32.253Z,8.27
2023-02-09T00:29:00.784Z,8.38
2023-02-09T00:31:28.692Z,8.30
2023-02-09T00:33:56.567Z,8.27
2023-02-09T00:36:24.432Z,8.10
2023-02-09T00:38:53.186Z,8.55
2023-02-09T00:41:43.894Z,8.52
2023-02-09T00:44:12.514Z,8.73
2023-02-09T00:46:40.381Z,7.95
2023-02-09T00:49:08.439Z,9.20
2023-02-09T00:51:36.365Z,8.85
2023-02-09T00:54:04.611Z,8.90
2023-02-09T00:56:33.776Z,8.30
2023-02-09T00:59:01.808Z,9.57
2023-02-09T01:01:29.890Z,8.65
2023-02-09T01:03:57.807Z,9.95
2023-02-09T01:06:25.620Z,10.32
2023-02-09T01:08:53.492Z,9.75
2023-02-09T01:11:22.894Z,9.15
2023-02-09T01:13:52.028Z,8.43
2023-02-09T01:16:19.944Z,9.07
2023-02-09T01:18:47.818Z,9.32
2023-02-09T01:21:18.344Z,9.57
2023-02-09T01:23:47.502Z,9.02
2023-02-09T01:26:17.324Z,8.25
2023-02-09T01:28:45.542Z,8.80
2023-02-09T01:31:24.268Z,8.23
2023-02-09T01:33:53.468Z,8.75
2023-02-09T01:36:22.197Z,9.57
2023-02-09T01:38:50.854Z,9.40
2023-02-09T01:41:19.151Z,10.15
2023-02-09T01:43:59.080Z,9.30
2023-02-09T01:46:31.070Z,12.10
2023-02-09T01:49:06.287Z,9.77
2023-02-09T01:51:37.701Z,9.40
2023-02-09T01:56:39.798Z,9.48
2023-02-09T01:59:08.736Z,10.70
2023-02-09T02:01:39.437Z,9.20
2023-02-09T02:04:08.723Z,9.45
2023-02-09T02:06:38.074Z,8.85
2023-02-09T02:09:12.776Z,8.30
2023-02-09T02:11:43.370Z,9.20
2023-02-09T02:14:28.848Z,10.48
2023-02-09T02:17:08.307Z,9.45
2023-02-09T02:20:21.656Z,8.75
2023-02-09T02:25:59.153Z,8.65
2023-02-09T02:28:41.927Z,9.05
2023-02-09T02:31:30.904Z,9.65
2023-02-09T02:34:07.818Z,10.35
2023-02-09T02:36:42.982Z,9.90
2023-02-09T02:39:18.983Z,9.95
2023-02-09T02:42:12.399Z,9.30
2023-02-09T02:44:44.545Z,9.43
2023-02-09T02:47:19.334Z,8.48
2023-02-09T02:49:52.429Z,8.98
2023-02-09T02:52:20.244Z,8.93
2023-02-09T02:54:53.896Z,7.78
2023-02-09T02:57:26.444Z,8.32
2023-02-09T02:59:58.262Z,8.43
2023-02-09T03:02:31.652Z,8.25
2023-02-09T03:05:01.690Z,8.93
2023-02-09T03:07:29.516Z,8.68
2023-02-09T03:09:58.188Z,9.00
2023-02-09T03:12:35.480Z,7.40
2023-02-09T03:15:15.486Z,8.77
2023-02-09T03:17:49.246Z,8.98
2023-02-09T03:20:26.763Z,8.18
2023-02-09T03:22:58.522Z,10.50
2023-02-09T03:25:31.121Z,8.43
2023-02-09T03:28:05.529Z,9.65
2023-02-09T03:30:35.389Z,9.20
2023-02-09T03:33:06.235Z,9.63
2023-02-09T03:35:39.898Z,9.50
2023-02-09T03:38:07.894Z,8.57
2023-02-09T03:40:36.262Z,10.68
2023-02-09T03:43:04.067Z,9.95
2023-02-09T03:45:31.835Z,9.65
2023-02-09T03:47:59.614Z,8.65
2023-02-09T03:50:30.107Z,8.32
2023-02-09T03:52:57.944Z,9.15
2023-02-09T03:55:25.706Z,10.02
2023-02-09T03:57:53.682Z,9.85
2023-02-09T04:00:21.922Z,8.95
2023-02-09T04:02:49.762Z,9.25
2023-02-09T04:05:17.727Z,8.85
2023-02-09T04:07:46.965Z,9.23
2023-02-09T04:10:14.782Z,8.25
2023-02-09T04:12:42.560Z,8.00
2023-02-09T04:15:11.109Z,8.10
2023-02-09T04:17:38.900Z,8.23
2023-02-09T04:20:07.316Z,8.55
2023-02-09T04:22:35.066Z,9.20
2023-02-09T04:25:04.677Z,8.40
2023-02-09T04:27:32.414Z,8.60
2023-02-09T04:30:00.201Z,10.02
2023-02-09T04:32:27.958Z,9.23
2023-02-09T04:34:55.751Z,8.73
2023-02-09T04:37:23.503Z,8.07
2023-02-09T04:39:51.254Z,8.60
2023-02-09T04:42:20.395Z,8.13
2023-02-09T04:44:48.119Z,8.45
2023-02-09T04:47:15.935Z,8.02
2023-02-09T04:49:44.449Z,7.88
2023-02-09T04:52:12.323Z,8.32
2023-02-09T04:54:40.088Z,8.98
2023-02-09T04:57:25.582Z,8.70
2023-02-09T04:59:54.691Z,8.00
2023-02-09T05:02:22.498Z,7.43
2023-02-09T05:04:50.304Z,8.80
2023-02-09T05:07:18.292Z,8.25
2023-02-09T05:09:46.065Z,8.77
2023-02-09T05:12:13.914Z,9.38
2023-02-09T05:14:41.738Z,8.60
2023-02-09T05:17:10.946Z,8.18
2023-02-09T05:19:38.651Z,8.25
2023-02-09T05:22:06.422Z,8.23
2023-02-09T05:24:34.152Z,8.27
2023-02-09T05:27:01.959Z,7.80
2023-02-09T05:29:29.960Z,9.55
2023-02-09T05:31:57.937Z,8.63
2023-02-09T05:34:27.111Z,7.88
2023-02-09T05:36:54.852Z,7.85
2023-02-09T05:39:22.638Z,8.35
2023-02-09T05:42:07.844Z,8.07
2023-02-09T05:44:35.679Z,8.77
2023-02-09T05:47:03.489Z,7.45
2023-02-09T05:49:32.658Z,8.32
2023-02-09T05:52:00.620Z,8.23
2023-02-09T05:54:28.474Z,7.10
2023-02-09T05:56:56.244Z,7.55
2023-02-09T05:59:24.307Z,7.32
2023-02-09T06:01:52.839Z,7.07
2023-02-09T06:04:20.878Z,7.88
2023-02-09T06:06:50.129Z,8.10
2023-02-09T06:09:17.924Z,7.53
2023-02-09T06:11:45.850Z,8.07
2023-02-09T06:14:13.681Z,7.68
2023-02-09T06:16:41.757Z,7.85
2023-02-09T06:19:13.580Z,8.95
2023-02-09T06:21:41.499Z,7.30
2023-02-09T06:24:10.788Z,7.55
2023-02-09T06:26:38.655Z,7.20
2023-02-09T06:29:07.785Z,7.68
2023-02-09T06:31:36.466Z,7.80
2023-02-09T06:34:05.720Z,8.27
2023-02-09T06:36:33.679Z,7.68
2023-02-09T06:39:01.771Z,8.45
2023-02-09T06:41:30.871Z,7.50
2023-02-09T06:43:58.622Z,7.70
2023-02-09T06:46:26.428Z,7.93
2023-02-09T06:48:54.217Z,8.20
2023-02-09T06:51:22.186Z,8.25
2023-02-09T06:53:50.324Z,7.60
2023-02-09T06:56:18.126Z,8.30
2023-02-09T06:58:47.321Z,8.35
2023-02-09T07:01:16.698Z,8.23
2023-02-09T07:03:45.023Z,8.63
2023-02-09T07:06:15.201Z,8.13
2023-02-09T07:08:43.579Z,7.25
2023-02-09T07:11:13.856Z,8.40
2023-02-09T07:13:41.773Z,7.68
2023-02-09T07:16:12.354Z,8.80
2023-02-09T07:18:41.200Z,8.05
2023-02-09T07:21:10.995Z,7.80
2023-02-09T07:23:39.515Z,7.97
2023-02-09T07:26:09.363Z,8.43
2023-02-09T07:28:37.710Z,7.45
2023-02-09T07:31:07.473Z,7.85
2023-02-09T07:33:37.368Z,7.60
2023-02-09T07:36:06.124Z,7.70
2023-02-09T07:38:34.852Z,7.65
2023-02-09T07:41:04.113Z,7.88
2023-02-09T07:43:32.689Z,8.35
2023-02-09T07:46:02.018Z,7.85
2023-02-09T07:48:29.907Z,7.55
2023-02-09T07:50:59.505Z,7.90
2023-02-09T07:53:28.210Z,7.57
2023-02-09T07:55:56.126Z,7.75
2023-02-09T07:58:24.177Z,6.93
2023-02-09T08:00:52.839Z,8.57
2023-02-09T08:03:23.407Z,8.52
2023-02-09T08:05:58.441Z,7.25
2023-02-09T08:08:27.633Z,8.48
2023-02-09T08:10:57.784Z,7.97
2023-02-09T08:13:27.856Z,7.97
2023-02-09T08:16:01.650Z,7.88
2023-02-09T08:18:35.771Z,8.30
2023-02-09T08:21:05.930Z,8.18
2023-02-09T08:23:37.201Z,8.18
2023-02-09T08:26:08.956Z,7.45
2023-02-09T08:28:44.079Z,8.40
2023-02-09T08:31:13.221Z,9.15
2023-02-09T08:33:41.111Z,8.30
2023-02-09T08:36:09.255Z,8.63
2023-02-09T08:38:38.597Z,7.72
2023-02-09T08:41:07.347Z,8.10
2023-02-09T08:43:36.031Z,7.88
2023-02-09T08:46:05.026Z,8.73
2023-02-09T08:48:35.602Z,8.43
2023-02-09T08:51:03.693Z,7.78
2023-02-09T08:53:31.579Z,7.70
2023-02-09T08:56:00.756Z,7.78
2023-02-09T08:58:30.147Z,8.05
2023-02-09T09:00:59.898Z,7.97
2023-02-09T09:03:31.523Z,8.25
2023-02-09T09:06:00.228Z,8.68
2023-02-09T09:08:28.596Z,8.35
2023-02-09T09:10:56.407Z,8.80
2023-02-09T09:13:26.134Z,8.20
2023-02-09T09:15:56.045Z,8.45
2023-02-09T09:18:24.162Z,8.52
2023-02-09T09:20:52.582Z,8.70
2023-02-09T09:23:21.140Z,9.35
2023-02-09T09:25:49.289Z,9.13
2023-02-09T09:28:17.423Z,8.13
2023-02-09T09:30:46.621Z,8.40
2023-02-09T09:33:14.529Z,9.15
2023-02-09T09:35:42.327Z,10.80
2023-02-09T09:38:10.238Z,8.50
2023-02-09T09:40:40.543Z,8.80
2023-02-09T09:43:20.057Z,7.68
2023-02-09T09:45:50.013Z,9.15
2023-02-09T09:48:24.224Z,8.75
2023-02-09T09:50:55.193Z,9.38
2023-02-09T09:53:33.003Z,8.98
2023-02-09T09:56:04.842Z,8.88
2023-02-09T09:58:33.662Z,8.68
2023-02-09T10:01:02.883Z,9.00
2023-02-09T10:03:30.839Z,9.40
2023-02-09T10:06:03.661Z,8.20
2023-02-09T10:08:36.117Z,8.90
2023-02-09T10:11:06.126Z,8.93
2023-02-09T10:13:38.231Z,9.02
2023-02-09T10:16:17.339Z,9.45
2023-02-09T10:18:45.561Z,9.55
2023-02-09T10:21:16.236Z,9.25
2023-02-09T10:23:45.987Z,9.32
2023-02-09T10:26:23.863Z,8.98
2023-02-09T10:28:53.918Z,9.75
2023-02-09T10:31:30.470Z,9.20
2023-02-09T10:34:02.300Z,9.32
2023-02-09T10:36:33.312Z,9.77
2023-02-09T10:39:16.469Z,10.48
2023-02-09T10:44:21.321Z,9.23
2023-02-09T10:46:53.134Z,10.05
2023-02-09T10:49:29.383Z,10.13
2023-02-09T10:52:08.023Z,10.20
2023-02-09T10:54:35.800Z,10.65
2023-02-09T10:57:03.635Z,10.65
2023-02-09T10:59:32.136Z,10.18
2023-02-09T11:02:02.777Z,11.23
2023-02-09T11:04:37.827Z,10.98
2023-02-09T11:07:11.724Z,10.32
2023-02-09T11:09:42.486Z,12.57
2023-02-09T11:12:12.191Z,11.55
2023-02-09T11:14:42.449Z,11.07
2023-02-09T11:17:17.395Z,10.90
2023-02-09T11:19:58.609Z,11.02
2023-02-09T11:22:43.457Z,10.70
2023-02-09T11:25:20.574Z,10.93
2023-02-09T11:27:59.261Z,11.68
2023-02-09T11:30:45.694Z,11.18
2023-02-09T11:33:23.194Z,11.43
2023-02-09T11:38:36.562Z,11.82
2023-02-09T11:41:28.808Z,11.07
2023-02-09T11:43:59.301Z,11.63
2023-02-09T11:46:30.414Z,11.45
2023-02-09T11:49:04.837Z,11.05
2023-02-09T11:51:38.229Z,12.00
2023-02-09T11:54:13.658Z,12.57
2023-02-09T11:56:45.604Z,12.02
2023-02-09T11:59:23.163Z,13.40
2023-02-09T12:01:57.966Z,12.25
2023-02-09T12:04:32.325Z,11.88
2023-02-09T12:07:03.738Z,11.63
2023-02-09T12:09:42.528Z,10.45
2023-02-09T12:12:20.222Z,12.23
2023-02-09T12:15:12.496Z,12.43
2023-02-09T12:17:46.749Z,11.10
2023-02-09T12:20:29.500Z,12.18
2023-02-09T12:23:01.582Z,12.50
2023-02-09T12:25:46.346Z,11.80
2023-02-09T12:28:18.051Z,12.55
2023-02-09T12:31:13.293Z,12.15
2023-02-09T12:36:30.508Z,12.73
2023-02-09T12:39:06.525Z,12.52
2023-02-09T12:42:19.155Z,12.68
2023-02-09T12:44:56.692Z,13.35
2023-02-09T12:47:47.959Z,12.40
2023-02-09T12:50:43.645Z,12.40
2023-02-09T12:53:44.858Z,12.20
2023-02-09T12:56:35.041Z,12.93
2023-02-09T12:59:17.834Z,12.52
2023-02-09T13:02:15.791Z,13.18
2023-02-09T13:04:55.435Z,12.40
2023-02-09T13:07:30.902Z,13.30
2023-02-09T13:10:08.817Z,13.88
2023-02-09T13:12:43.618Z,13.65
2023-02-09T13:15:14.823Z,13.30
2023-02-09T13:20:55.444Z,12.15
2023-02-09T13:23:34.984Z,12.13
2023-02-09T13:26:18.687Z,13.20
2023-02-09T13:28:46.461Z,13.55
2023-02-09T13:31:24.501Z,13.70
2023-02-09T13:33:55.293Z,14.30
2023-02-09T13:36:33.042Z,13.90
2023-02-09T13:39:00.827Z,14.00
2023-02-09T13:41:36.161Z,13.75
2023-02-09T13:44:04.694Z,13.82
2023-02-09T13:46:35.260Z,13.93
2023-02-09T13:49:14.161Z,14.45
2023-02-09T13:51:42.043Z,13.90
2023-02-09T13:54:19.465Z,14.10
2023-02-09T13:56:48.702Z,14.43
2023-02-09T13:59:17.651Z,14.07
2023-02-09T14:01:46.939Z,14.60
2023-02-09T14:04:19.387Z,14.85
2023-02-09T14:06:50.953Z,14.90
2023-02-09T14:09:22.308Z,15.18
2023-02-09T14:11:54.729Z,14.50
2023-02-09T14:14:27.144Z,15.23
2023-02-09T14:17:24.322Z,15.57
2023-02-09T14:19:53.963Z,14.50
2023-02-09T14:22:30.377Z,15.73
2023-02-09T14:24:58.418Z,15.60
2023-02-09T14:27:29.189Z,15.30
2023-02-09T14:29:57.347Z,16.05
2023-02-09T14:32:33.832Z,15.93
2023-02-09T14:35:15.745Z,15.45
2023-02-09T14:37:44.300Z,14.82
2023-02-09T14:40:23.044Z,15.13
2023-02-09T14:43:00.857Z,16.35
2023-02-09T14:45:37.813Z,18.40
2023-02-09T14:48:17.691Z,16.55
2023-02-09T14:50:45.690Z,15.63
2023-02-09T14:53:16.090Z,15.75
2023-02-09T14:55:44.556Z,16.20
2023-02-09T14:58:20.422Z,16.70
2023-02-09T15:00:48.279Z,16.33
2023-02-09T15:03:16.261Z,17.08
2023-02-09T15:05:44.817Z,15.57
2023-02-09T15:08:17.752Z,17.15
2023-02-09T15:10:47.832Z,16.60
2023-02-09T15:13:17.685Z,19.33
2023-02-09T15:15:46.415Z,16.98
2023-02-09T15:18:19.796Z,15.88
2023-02-09T15:20:47.971Z,17.15
2023-02-09T15:23:16.031Z,16.98
2023-02-09T15:25:44.395Z,18.23
2023-02-09T15:28:19.648Z,18.70
2023-02-09T15:30:48.453Z,16.65
2023-02-09T15:33:16.413Z,16.52
2023-02-09T15:35:44.412Z,15.82
2023-02-09T15:38:16.019Z,18.08
2023-02-09T15:41:03.585Z,17.92
2023-02-09T15:43:52.490Z,17.83
2023-02-09T15:46:43.208Z,18.00
2023-02-09T15:49:11.119Z,17.30
2023-02-09T15:51:41.086Z,17.00
2023-02-09T15:54:13.221Z,17.20
2023-02-09T15:56:41.242Z,16.98
2023-02-09T15:59:18.795Z,17.02
2023-02-09T16:01:46.848Z,18.70
2023-02-09T16:04:15.098Z,17.58
2023-02-09T16:06:46.804Z,18.33
2023-02-09T16:09:18.886Z,18.00
2023-02-09T16:11:48.310Z,18.23
2023-02-09T16:14:20.350Z,18.90
2023-02-09T16:16:48.983Z,18.55
2023-02-09T16:19:17.861Z,18.13
2023-02-09T16:21:49.874Z,17.48
2023-02-09T16:24:22.665Z,18.42
2023-02-09T16:26:50.519Z,18.98
2023-02-09T16:29:19.752Z,19.08
2023-02-09T16:31:47.897Z,18.27
2023-02-09T16:34:16.153Z,18.60
2023-02-09T16:36:44.898Z,19.27
2023-02-09T16:39:18.242Z,21.27
2023-02-09T16:41:50.501Z,19.17
2023-02-09T16:44:22.178Z,19.30
2023-02-09T16:46:52.256Z,18.02
2023-02-09T16:49:35.147Z,19.13
2023-02-09T16:52:07.012Z,20.20
2023-02-09T16:54:42.508Z,19.42
2023-02-09T16:57:14.147Z,19.67
2023-02-09T16:59:43.487Z,19.65
2023-02-09T17:02:31.542Z,20.05
2023-02-09T17:05:00.083Z,20.13
2023-02-09T17:07:34.264Z,18.73
2023-02-09T17:10:15.421Z,19.15
2023-02-09T17:12:43.263Z,19.13
2023-02-09T17:15:28.558Z,18.15
2023-02-09T17:18:02.251Z,18.77
2023-02-09T17:20:38.258Z,19.08
2023-02-09T17:23:06.628Z,20.70
2023-02-09T17:25:34.473Z,19.98
2023-02-09T17:28:02.266Z,19.88
2023-02-09T17:30:34.279Z,18.95
2023-02-09T17:33:05.515Z,20.02
2023-02-09T17:38:24.693Z,19.63
2023-02-09T17:40:54.235Z,20.45
2023-02-09T17:43:22.325Z,19.58
2023-02-09T17:45:51.844Z,20.58
2023-02-09T17:48:21.174Z,20.45
2023-02-09T17:50:52.587Z,19.80
2023-02-09T17:53:22.986Z,19.83
2023-02-09T17:55:51.588Z,19.48
2023-02-09T17:58:20.222Z,19.98
2023-02-09T18:00:48.021Z,20.55
2023-02-09T18:03:20.034Z,20.30
2023-02-09T18:05:52.424Z,20.77
2023-02-09T18:08:20.634Z,19.98
2023-02-09T18:10:48.895Z,21.98
2023-02-09T18:13:18.691Z,21.40
2023-02-09T18:15:48.179Z,22.23
2023-02-09T18:18:17.542Z,23.60
2023-02-09T18:20:45.338Z,23.10
2023-02-09T18:23:15.982Z,23.92
2023-02-09T18:25:44.467Z,20.73
2023-02-09T18:28:15.848Z,24.55
2023-02-09T18:30:44.570Z,20.52
2023-02-09T18:33:13.380Z,22.23
2023-02-09T18:35:45.057Z,21.70
2023-02-09T18:38:15.409Z,21.25
2023-02-09T18:40:43.279Z,20.20
2023-02-09T18:43:15.175Z,22.77
2023-02-09T18:45:42.947Z,22.45
2023-02-09T18:48:12.112Z,21.38
2023-02-09T18:50:40.275Z,23.83
2023-02-09T18:53:11.114Z,21.13
2023-02-09T18:55:39.221Z,22.02
2023-02-09T18:58:09.355Z,21.40
2023-02-09T19:00:37.478Z,21.48
2023-02-09T19:03:05.418Z,22.55
2023-02-09T19:05:34.683Z,22.90
2023-02-09T19:08:02.706Z,23.33
2023-02-09T19:10:33.118Z,22.23
2023-02-09T19:13:02.949Z,22.02
2023-02-09T19:15:31.690Z,22.85
2023-02-09T19:17:59.961Z,22.63
2023-02-09T19:20:29.460Z,23.88
2023-02-09T19:22:57.581Z,24.98
2023-02-09T19:25:27.683Z,24.70
2023-02-09T19:27:57.046Z,25.70
2023-02-09T19:30:27.421Z,27.25
2023-02-09T19:32:58.636Z,26.00
2023-02-09T19:37:55.613Z,22.60
2023-02-09T19:40:33.712Z,23.83
2023-02-09T19:43:03.736Z,27.80
2023-02-09T19:45:36.272Z,25.20
2023-02-09T19:48:05.130Z,24.45
2023-02-09T19:50:32.989Z,24.23
2023-02-09T19:53:02.760Z,25.38
2023-02-09T19:55:30.720Z,25.48
2023-02-09T19:57:59.262Z,24.92
2023-02-09T20:00:28.791Z,25.70
2023-02-09T20:02:56.674Z,25.02
2023-02-09T20:05:24.469Z,25.17
2023-02-09T20:07:53.708Z,22.50
2023-02-09T20:10:23.727Z,23.13
2023-02-09T20:12:51.652Z,23.77
2023-02-09T20:15:19.732Z,25.30
2023-02-09T20:17:48.920Z,25.48
2023-02-09T20:20:17.127Z,23.33
2023-02-09T20:22:44.920Z,27.45
2023-02-09T20:25:14.557Z,28.38
2023-02-09T20:27:50.371Z,30.63
2023-02-09T20:30:18.980Z,29.63
2023-02-09T20:32:48.207Z,25.75
2023-02-09T20:35:17.354Z,23.92
2023-02-09T20:37:45.237Z,24.75
2023-02-09T20:40:14.181Z,23.00
2023-02-09T20:42:59.424Z,23.25
2023-02-09T20:45:45.171Z,22.83
2023-02-09T20:48:14.680Z,22.05
2023-02-09T20:50:42.537Z,22.55
2023-02-09T20:53:10.298Z,22.90
2023-02-09T20:55:38.255Z,22.98
2023-02-09T20:58:06.236Z,23.45
2023-02-09T21:00:34.493Z,22.92
2023-02-09T21:03:02.333Z,23.40
2023-02-09T21:05:31.554Z,23.95
2023-02-09T21:07:59.414Z,23.27
2023-02-09T21:10:27.268Z,23.83
2023-02-09T21:12:55.032Z,23.25
2023-02-09T21:15:22.859Z,22.77
2023-02-09T21:17:51.735Z,22.55
2023-02-09T21:20:19.786Z,21.98
2023-02-09T21:22:50.124Z,21.70
2023-02-09T21:25:19.018Z,21.05
2023-02-09T21:27:47.013Z,22.65
2023-02-09T21:30:16.457Z,22.65
2023-02-09T21:32:44.398Z,21.17
2023-02-09T21:35:12.154Z,21.33
2023-02-09T21:37:42.801Z,21.23
2023-02-09T21:40:16.015Z,21.48
2023-02-09T21:42:44.268Z,21.50
2023-02-09T21:45:12.090Z,20.70
2023-02-09T21:47:40.411Z,20.45
2023-02-09T21:50:10.908Z,21.55
2023-02-09T21:52:38.719Z,20.58
2023-02-09T21:55:08.219Z,18.90
2023-02-09T21:57:38.278Z,20.35
2023-02-09T22:00:08.907Z,19.58
2023-02-09T22:02:36.946Z,19.88
2023-02-09T22:05:05.247Z,19.40
2023-02-09T22:07:33.081Z,19.92
2023-02-09T22:10:02.056Z,19.33
2023-02-09T22:12:30.005Z,19.67
2023-02-09T22:14:59.174Z,19.35
2023-02-09T22:17:27.071Z,18.23
2023-02-09T22:19:54.867Z,18.33
2023-02-09T22:22:22.664Z,18.55
2023-02-09T22:24:50.489Z,18.90
2023-02-09T22:27:18.283Z,18.20
2023-02-09T22:29:46.320Z,18.23
2023-02-09T22:32:15.471Z,18.35
2023-02-09T22:34:43.241Z,17.52
2023-02-09T22:37:11.094Z,17.75
2023-02-09T22:39:38.881Z,18.30
2023-02-09T22:42:06.906Z,17.70
2023-02-09T22:44:34.898Z,16.08
2023-02-09T22:47:02.701Z,16.52
2023-02-09T22:49:31.930Z,17.75
2023-02-09T22:51:59.747Z,17.13
2023-02-09T22:54:27.493Z,15.48
2023-02-09T22:56:55.248Z,16.17
2023-02-09T22:59:23.087Z,15.80
2023-02-09T23:01:50.859Z,14.98
2023-02-09T23:04:18.706Z,14.57
2023-02-09T23:06:48.037Z,15.18
2023-02-09T23:09:16.239Z,15.23
2023-02-09T23:11:44.320Z,15.10
2023-02-09T23:14:12.612Z,14.65
2023-02-09T23:16:41.884Z,14.50
2023-02-09T23:19:12.871Z,13.90
2023-02-09T23:21:43.498Z,14.80
2023-02-09T23:24:13.747Z,14.63
2023-02-09T23:26:42.228Z,15.00
2023-02-09T23:29:11.474Z,14.38
2023-02-09T23:31:39.551Z,13.75
2023-02-09T23:34:07.429Z,13.15
2023-02-09T23:36:36.208Z,13.75
2023-02-09T23:39:06.661Z,13.50
2023-02-09T23:41:36.416Z,13.55
2023-02-09T23:44:04.531Z,13.85
2023-02-09T23:46:32.585Z,13.50
2023-02-09T23:49:00.540Z,13.55
2023-02-09T23:51:30.230Z,13.55
2023-02-09T23:53:59.260Z,13.43
2023-02-09T23:56:28.375Z,14.43
2023-02-09T23:58:57.767Z,12.68
